createdAt,value
2022-10-22T00:00:08.982Z,2.67
2022-10-22T00:02:35.809Z,2.47
2022-10-22T00:05:02.482Z,2.50
2022-10-22T00:07:29.122Z,2.37
2022-10-22T00:09:55.708Z,2.90
2022-10-22T00:12:22.552Z,2.70
2022-10-22T00:14:49.566Z,2.67
2022-10-22T00:17:17.231Z,2.50
2022-10-22T00:19:43.940Z,2.70
2022-10-22T00:22:11.944Z,2.93
2022-10-22T00:24:39.289Z,2.80
2022-10-22T00:27:07.389Z,2.87
2022-10-22T00:29:34.112Z,2.80
2022-10-22T00:32:00.748Z,2.93
2022-10-22T00:34:27.655Z,3.13
2022-10-22T00:36:57.370Z,3.20
2022-10-22T00:39:25.354Z,3.07
2022-10-22T00:41:58.491Z,2.80
2022-10-22T00:45:02.866Z,2.80
2022-10-22T00:47:54.512Z,3.10
2022-10-22T00:50:25.293Z,3.07
2022-10-22T00:52:51.995Z,2.70
2022-10-22T00:55:19.631Z,3.37
2022-10-22T00:57:46.383Z,3.60
2022-10-22T01:00:13.771Z,3.33
2022-10-22T01:02:40.507Z,3.90
2022-10-22T01:05:07.732Z,3.10
2022-10-22T01:07:45.091Z,2.77
2022-10-22T01:10:21.791Z,3.00
2022-10-22T01:13:10.312Z,3.33
2022-10-22T01:15:48.721Z,2.90
2022-10-22T01:18:38.736Z,2.90
2022-10-22T01:21:30.173Z,2.90
2022-10-22T01:24:19.757Z,2.97
2022-10-22T01:26:58.556Z,3.00
2022-10-22T01:29:29.708Z,2.60
2022-10-22T01:32:03.206Z,3.00
2022-10-22T01:34:31.022Z,3.30
2022-10-22T01:36:59.566Z,3.03
2022-10-22T01:39:27.695Z,3.10
2022-10-22T01:41:56.231Z,3.20
2022-10-22T01:47:05.000Z,3.10
2022-10-22T01:49:41.825Z,3.20
2022-10-22T01:52:19.897Z,3.20
2022-10-22T01:55:01.856Z,2.93
2022-10-22T01:57:48.610Z,2.87
2022-10-22T02:00:17.605Z,3.13
2022-10-22T02:02:50.976Z,3.27
2022-10-22T02:05:23.460Z,3.00
2022-10-22T02:07:53.167Z,3.07
2022-10-22T02:10:20.316Z,3.33
2022-10-22T02:12:51.150Z,3.20
2022-10-22T02:15:19.206Z,3.30
2022-10-22T02:17:46.671Z,3.60
2022-10-22T02:20:17.981Z,3.70
2022-10-22T02:22:44.792Z,3.37
2022-10-22T02:25:11.851Z,3.30
2022-10-22T02:27:45.722Z,3.10
2022-10-22T02:33:04.591Z,3.40
2022-10-22T02:35:31.553Z,3.37
2022-10-22T02:37:59.392Z,3.60
2022-10-22T02:40:26.526Z,3.83
2022-10-22T02:42:53.384Z,3.77
2022-10-22T02:45:20.789Z,3.33
2022-10-22T02:47:47.591Z,3.50
2022-10-22T02:50:14.464Z,3.47
2022-10-22T02:52:41.317Z,3.73
2022-10-22T02:55:09.042Z,3.60
2022-10-22T02:57:35.652Z,3.80
2022-10-22T03:00:02.260Z,3.60
2022-10-22T03:02:28.870Z,3.00
2022-10-22T03:04:55.481Z,3.50
2022-10-22T03:07:22.128Z,3.67
2022-10-22T03:09:48.884Z,3.60
2022-10-22T03:12:15.482Z,3.10
2022-10-22T03:14:42.105Z,3.20
2022-10-22T03:17:08.832Z,3.33
2022-10-22T03:19:35.875Z,3.40
2022-10-22T03:22:08.279Z,3.73
2022-10-22T03:24:43.147Z,3.30
2022-10-22T03:27:10.336Z,3.63
2022-10-22T03:29:39.341Z,3.27
2022-10-22T03:32:06.526Z,3.17
2022-10-22T03:34:33.100Z,3.40
2022-10-22T03:37:00.700Z,3.60
2022-10-22T03:39:30.017Z,3.60
2022-10-22T03:41:56.715Z,3.50
2022-10-22T03:44:23.992Z,3.70
2022-10-22T03:46:50.727Z,3.43
2022-10-22T03:49:17.447Z,3.77
2022-10-22T03:51:44.113Z,3.73
2022-10-22T03:54:10.765Z,3.50
2022-10-22T03:56:37.423Z,3.50
2022-10-22T03:59:04.476Z,3.57
2022-10-22T04:01:31.597Z,3.97
2022-10-22T04:03:58.996Z,4.63
2022-10-22T04:06:25.763Z,3.60
2022-10-22T04:08:52.713Z,3.83
2022-10-22T04:11:19.325Z,3.60
2022-10-22T04:13:45.903Z,3.97
2022-10-22T04:16:19.704Z,3.80
2022-10-22T04:18:47.464Z,3.77
2022-10-22T04:21:16.149Z,3.57
2022-10-22T04:23:47.407Z,3.67
2022-10-22T04:26:14.384Z,3.63
2022-10-22T04:28:41.437Z,3.47
2022-10-22T04:31:12.978Z,3.73
2022-10-22T04:33:40.334Z,3.53
2022-10-22T04:36:09.364Z,3.67
2022-10-22T04:38:36.139Z,4.13
2022-10-22T04:41:21.056Z,3.70
2022-10-22T04:43:48.224Z,3.93
2022-10-22T04:46:16.599Z,3.43
2022-10-22T04:48:44.311Z,3.83
2022-10-22T04:51:13.748Z,3.87
2022-10-22T04:53:43.201Z,3.80
2022-10-22T04:56:22.226Z,3.90
2022-10-22T04:58:53.122Z,4.00
2022-10-22T05:01:22.046Z,3.57
2022-10-22T05:03:49.894Z,3.53
2022-10-22T05:06:17.045Z,3.90
2022-10-22T05:08:43.777Z,3.73
2022-10-22T05:11:12.249Z,3.80
2022-10-22T05:13:38.940Z,4.00
2022-10-22T05:16:05.840Z,4.27
2022-10-22T05:18:35.831Z,3.90
2022-10-22T05:21:03.181Z,3.90
2022-10-22T05:23:29.783Z,4.10
2022-10-22T05:25:56.385Z,3.83
2022-10-22T05:28:23.101Z,4.30
2022-10-22T05:30:54.374Z,4.27
2022-10-22T05:33:24.074Z,4.30
2022-10-22T05:35:51.090Z,3.90
2022-10-22T05:38:18.667Z,4.33
2022-10-22T05:40:45.524Z,4.20
2022-10-22T05:43:12.541Z,3.70
2022-10-22T05:45:42.564Z,4.00
2022-10-22T05:48:09.901Z,4.10
2022-10-22T05:50:37.463Z,4.07
2022-10-22T05:53:07.541Z,4.10
2022-10-22T05:55:38.968Z,3.97
2022-10-22T05:58:05.537Z,3.93
2022-10-22T06:00:34.545Z,4.40
2022-10-22T06:03:01.126Z,4.13
2022-10-22T06:05:27.745Z,4.70
2022-10-22T06:07:57.156Z,4.70
2022-10-22T06:10:24.014Z,4.30
2022-10-22T06:12:50.688Z,4.37
2022-10-22T06:15:18.399Z,4.20
2022-10-22T06:17:45.559Z,5.00
2022-10-22T06:20:12.957Z,4.63
2022-10-22T06:22:40.163Z,4.37
2022-10-22T06:25:08.532Z,4.60
2022-10-22T06:27:35.261Z,4.30
2022-10-22T06:30:01.935Z,4.93
2022-10-22T06:32:28.516Z,4.30
2022-10-22T06:35:18.443Z,4.40
2022-10-22T06:37:45.030Z,4.50
2022-10-22T06:40:13.389Z,4.90
2022-10-22T06:42:40.206Z,4.90
2022-10-22T06:45:07.883Z,4.60
2022-10-22T06:47:34.502Z,5.40
2022-10-22T06:50:01.084Z,4.90
2022-10-22T06:52:27.691Z,4.57
2022-10-22T06:54:54.292Z,5.10
2022-10-22T06:57:20.881Z,4.50
2022-10-22T06:59:47.624Z,5.07
2022-10-22T07:02:14.618Z,4.13
2022-10-22T07:04:41.308Z,4.80
2022-10-22T07:07:07.881Z,4.53
2022-10-22T07:09:34.474Z,4.90
2022-10-22T07:12:01.100Z,4.83
2022-10-22T07:14:27.733Z,4.60
2022-10-22T07:16:54.372Z,4.50
2022-10-22T07:19:20.959Z,4.23
2022-10-22T07:21:47.557Z,4.20
2022-10-22T07:24:14.171Z,3.93
2022-10-22T07:26:40.832Z,4.10
2022-10-22T07:29:07.538Z,3.93
2022-10-22T07:31:34.134Z,3.53
2022-10-22T07:34:00.747Z,3.40
2022-10-22T07:36:27.466Z,3.90
2022-10-22T07:38:56.747Z,3.40
2022-10-22T07:41:23.995Z,3.37
2022-10-22T07:43:51.307Z,3.00
2022-10-22T07:46:18.737Z,3.43
2022-10-22T07:48:45.544Z,3.63
2022-10-22T07:51:12.251Z,4.00
2022-10-22T07:53:39.110Z,3.40
2022-10-22T07:56:06.168Z,3.67
2022-10-22T07:58:32.847Z,3.77
2022-10-22T08:01:01.072Z,3.63
2022-10-22T08:03:28.610Z,4.00
2022-10-22T08:05:55.428Z,3.70
2022-10-22T08:08:24.881Z,3.60
2022-10-22T08:10:54.067Z,3.97
2022-10-22T08:13:20.713Z,3.20
2022-10-22T08:15:47.410Z,3.80
2022-10-22T08:18:15.674Z,3.53
2022-10-22T08:20:42.455Z,3.20
2022-10-22T08:23:09.119Z,3.10
2022-10-22T08:25:36.165Z,3.17
2022-10-22T08:28:02.862Z,3.13
2022-10-22T08:30:29.945Z,2.90
2022-10-22T08:32:56.762Z,2.67
2022-10-22T08:35:26.014Z,3.23
2022-10-22T08:37:52.609Z,3.30
2022-10-22T08:40:39.787Z,2.97
2022-10-22T08:43:27.891Z,3.20
2022-10-22T08:45:57.404Z,3.00
2022-10-22T08:48:29.956Z,3.00
2022-10-22T08:50:57.330Z,3.07
2022-10-22T08:53:32.699Z,3.00
2022-10-22T08:55:59.327Z,4.37
2022-10-22T08:58:40.529Z,3.83
2022-10-22T09:01:14.077Z,3.77
2022-10-22T09:03:42.940Z,3.73
2022-10-22T09:06:18.927Z,3.53
2022-10-22T09:08:47.007Z,3.23
2022-10-22T09:11:29.171Z,3.50
2022-10-22T09:13:57.374Z,3.70
2022-10-22T09:16:36.153Z,3.73
2022-10-22T09:19:18.819Z,3.57
2022-10-22T09:22:06.425Z,3.47
2022-10-22T09:24:47.728Z,3.03
2022-10-22T09:27:31.349Z,3.03
2022-10-22T09:29:58.053Z,3.20
2022-10-22T09:32:25.711Z,3.20
2022-10-22T09:34:56.534Z,2.77
2022-10-22T09:37:26.900Z,2.80
2022-10-22T09:40:05.291Z,3.20
2022-10-22T09:42:33.755Z,3.07
2022-10-22T09:45:00.681Z,2.90
2022-10-22T09:47:43.381Z,3.33
2022-10-22T09:50:41.408Z,3.13
2022-10-22T09:53:27.316Z,2.80
2022-10-22T09:58:22.942Z,3.40
2022-10-22T10:00:59.021Z,3.00
2022-10-22T10:03:28.829Z,3.20
2022-10-22T10:06:21.020Z,2.50
2022-10-22T10:08:48.349Z,2.70
2022-10-22T10:11:39.303Z,3.10
2022-10-22T10:14:21.831Z,2.40
2022-10-22T10:17:23.583Z,2.37
2022-10-22T10:20:17.978Z,2.10
2022-10-22T10:22:58.080Z,2.30
2022-10-22T10:25:52.320Z,3.00
2022-10-22T10:28:54.776Z,2.80
2022-10-22T10:31:42.858Z,2.73
2022-10-22T10:34:39.380Z,2.60
2022-10-22T10:37:29.561Z,2.40
2022-10-22T10:40:13.115Z,2.03
2022-10-22T10:42:55.733Z,2.00
2022-10-22T10:45:27.865Z,2.23
2022-10-22T10:48:10.284Z,2.03
2022-10-22T10:51:06.494Z,2.40
2022-10-22T10:53:52.579Z,1.97
2022-10-22T10:56:47.995Z,1.80
2022-10-22T10:59:18.097Z,2.07
2022-10-22T11:02:01.475Z,2.30
2022-10-22T11:05:07.090Z,2.10
2022-10-22T11:08:03.062Z,1.93
2022-10-22T11:10:38.014Z,1.60
2022-10-22T11:13:23.293Z,1.60
2022-10-22T11:15:56.947Z,1.50
2022-10-22T11:19:06.046Z,1.83
2022-10-22T11:21:40.146Z,1.63
2022-10-22T11:24:20.860Z,1.50
2022-10-22T11:26:52.312Z,1.43
2022-10-22T11:29:44.639Z,1.43
2022-10-22T11:32:16.104Z,1.30
2022-10-22T11:34:47.410Z,1.40
2022-10-22T11:37:14.492Z,1.77
2022-10-22T11:39:53.916Z,1.57
2022-10-22T11:42:30.488Z,1.90
2022-10-22T11:45:06.313Z,1.77
2022-10-22T11:48:12.633Z,1.60
2022-10-22T11:50:47.180Z,1.50
2022-10-22T11:53:13.823Z,1.60
2022-10-22T11:55:51.506Z,1.70
2022-10-22T11:58:39.582Z,1.40
2022-10-22T12:01:09.279Z,1.50
2022-10-22T12:03:41.060Z,1.57
2022-10-22T12:06:15.133Z,1.43
2022-10-22T12:08:57.865Z,1.60
2022-10-22T12:11:50.019Z,1.83
2022-10-22T12:14:30.807Z,1.60
2022-10-22T12:17:13.131Z,1.50
2022-10-22T12:19:42.851Z,1.47
2022-10-22T12:22:34.824Z,1.33
2022-10-22T12:25:23.167Z,1.50
2022-10-22T12:27:55.141Z,1.70
2022-10-22T12:30:30.023Z,1.30
2022-10-22T12:33:00.359Z,1.60
2022-10-22T12:35:30.126Z,1.60
2022-10-22T12:38:18.927Z,1.60
2022-10-22T12:40:48.444Z,1.60
2022-10-22T12:43:32.225Z,1.70
2022-10-22T12:45:59.643Z,1.50
2022-10-22T12:48:40.537Z,1.50
2022-10-22T12:51:09.543Z,1.70
2022-10-22T12:53:46.306Z,1.33
2022-10-22T12:56:33.936Z,1.40
2022-10-22T12:59:10.665Z,1.60
2022-10-22T13:01:39.369Z,1.50
2022-10-22T13:04:32.408Z,1.60
2022-10-22T13:07:18.250Z,1.60
2022-10-22T13:09:58.226Z,1.70
2022-10-22T13:12:27.733Z,2.03
2022-10-22T13:14:54.583Z,1.60
2022-10-22T13:17:42.233Z,1.80
2022-10-22T13:20:21.437Z,1.70
2022-10-22T13:23:06.664Z,1.70
2022-10-22T13:25:35.513Z,1.80
2022-10-22T13:28:18.549Z,1.80
2022-10-22T13:30:53.874Z,1.40
2022-10-22T13:33:36.326Z,1.33
2022-10-22T13:36:03.792Z,1.40
2022-10-22T13:38:30.597Z,1.30
2022-10-22T13:41:03.326Z,1.57
2022-10-22T13:43:29.929Z,1.60
2022-10-22T13:45:59.056Z,1.70
2022-10-22T13:48:26.660Z,1.50
2022-10-22T13:50:53.780Z,1.80
2022-10-22T13:53:25.992Z,1.50
2022-10-22T13:55:52.870Z,1.60
2022-10-22T13:58:21.858Z,1.50
2022-10-22T14:00:55.900Z,1.70
2022-10-22T14:03:25.379Z,1.57
2022-10-22T14:05:52.059Z,1.77
2022-10-22T14:08:21.390Z,1.70
2022-10-22T14:10:48.300Z,1.57
2022-10-22T14:13:16.821Z,1.73
2022-10-22T14:15:56.033Z,1.20
2022-10-22T14:18:30.839Z,1.37
2022-10-22T14:21:00.220Z,1.53
2022-10-22T14:23:29.084Z,1.10
2022-10-22T14:25:58.609Z,1.50
2022-10-22T14:28:27.081Z,1.90
2022-10-22T14:30:54.631Z,1.77
2022-10-22T14:33:30.380Z,2.00
2022-10-22T14:35:59.843Z,1.63
2022-10-22T14:38:26.806Z,1.90
2022-10-22T14:40:54.870Z,1.70
2022-10-22T14:43:27.222Z,2.20
2022-10-22T14:45:54.087Z,2.00
2022-10-22T14:48:20.805Z,2.50
2022-10-22T14:50:48.216Z,2.07
2022-10-22T14:53:16.885Z,1.90
2022-10-22T14:55:44.668Z,2.10
2022-10-22T14:58:12.395Z,1.90
2022-10-22T15:00:41.274Z,1.97
2022-10-22T15:03:08.090Z,1.90
2022-10-22T15:05:36.384Z,2.13
2022-10-22T15:08:05.942Z,2.37
2022-10-22T15:10:36.066Z,2.50
2022-10-22T15:13:02.675Z,1.80
2022-10-22T15:15:34.003Z,1.87
2022-10-22T15:18:02.052Z,2.07
2022-10-22T15:20:29.042Z,2.10
2022-10-22T15:23:03.841Z,1.80
2022-10-22T15:25:30.715Z,1.83
2022-10-22T15:28:01.815Z,2.00
2022-10-22T15:30:31.543Z,2.00
2022-10-22T15:32:58.296Z,2.23
2022-10-22T15:35:30.536Z,1.93
2022-10-22T15:37:57.238Z,2.50
2022-10-22T15:40:27.470Z,3.37
2022-10-22T15:43:32.262Z,2.60
2022-10-22T15:46:08.844Z,3.07
2022-10-22T15:48:38.045Z,3.57
2022-10-22T15:51:10.286Z,4.50
2022-10-22T15:53:39.179Z,4.23
2022-10-22T15:56:06.031Z,4.70
2022-10-22T15:58:33.014Z,5.03
2022-10-22T16:01:07.350Z,5.63
2022-10-22T16:03:34.717Z,5.90
2022-10-22T16:06:04.929Z,4.80
2022-10-22T16:08:31.614Z,3.73
2022-10-22T16:11:01.635Z,4.00
2022-10-22T16:13:30.327Z,4.10
2022-10-22T16:15:59.642Z,4.70
2022-10-22T16:18:39.344Z,5.80
2022-10-22T16:21:11.951Z,9.73
2022-10-22T16:23:38.725Z,7.20
2022-10-22T16:26:05.533Z,8.43
2022-10-22T16:31:06.378Z,5.67
2022-10-22T16:33:41.275Z,5.83
2022-10-22T16:36:14.556Z,5.90
2022-10-22T16:38:41.328Z,4.30
2022-10-22T16:41:25.345Z,3.90
2022-10-22T16:43:55.181Z,3.83
2022-10-22T16:46:22.940Z,4.93
2022-10-22T16:48:56.178Z,5.23
2022-10-22T16:51:24.735Z,7.03
2022-10-22T16:53:52.355Z,6.10
2022-10-22T16:56:19.099Z,5.20
2022-10-22T16:58:48.011Z,4.73
2022-10-22T17:01:18.009Z,5.80
2022-10-22T17:03:45.070Z,5.50
2022-10-22T17:06:12.099Z,4.30
2022-10-22T17:08:42.358Z,3.87
2022-10-22T17:11:13.589Z,3.60
2022-10-22T17:13:42.005Z,3.30
2022-10-22T17:16:10.703Z,3.40
2022-10-22T17:18:39.121Z,3.37
2022-10-22T17:23:58.361Z,3.13
2022-10-22T17:29:09.985Z,3.50
2022-10-22T17:31:42.930Z,3.17
2022-10-22T17:34:16.137Z,2.47
2022-10-22T17:36:43.446Z,2.87
2022-10-22T17:39:14.128Z,3.13
2022-10-22T17:41:52.862Z,3.00
2022-10-22T17:44:25.798Z,3.47
2022-10-22T17:46:52.565Z,3.80
2022-10-22T17:49:29.694Z,3.43
2022-10-22T17:52:03.457Z,3.20
2022-10-22T17:54:40.404Z,3.73
2022-10-22T17:57:10.428Z,3.40
2022-10-22T17:59:47.200Z,3.23
2022-10-22T18:02:16.617Z,3.27
2022-10-22T18:04:43.991Z,4.10
2022-10-22T18:07:11.012Z,4.80
2022-10-22T18:09:44.914Z,4.80
2022-10-22T18:12:19.027Z,5.67
2022-10-22T18:14:47.182Z,5.93
2022-10-22T18:20:00.805Z,4.40
2022-10-22T18:22:27.587Z,4.53
2022-10-22T18:24:54.444Z,5.00
2022-10-22T18:27:21.107Z,5.83
2022-10-22T18:29:49.987Z,6.00
2022-10-22T18:32:16.903Z,6.27
2022-10-22T18:34:43.642Z,6.07
2022-10-22T18:37:10.324Z,6.37
2022-10-22T18:39:37.042Z,5.60
2022-10-22T18:42:06.346Z,7.03
2022-10-22T18:44:34.973Z,5.50
2022-10-22T18:47:01.635Z,5.70
2022-10-22T18:49:28.250Z,5.40
2022-10-22T18:51:54.893Z,5.20
2022-10-22T18:54:23.534Z,5.00
2022-10-22T18:56:51.530Z,4.40
2022-10-22T18:59:20.742Z,4.30
2022-10-22T19:01:47.632Z,4.67
2022-10-22T19:04:14.417Z,4.03
2022-10-22T19:06:45.240Z,4.53
2022-10-22T19:09:13.726Z,4.10
2022-10-22T19:11:40.470Z,4.17
2022-10-22T19:14:07.184Z,4.60
2022-10-22T19:16:35.324Z,4.50
2022-10-22T19:22:59.739Z,4.63
2022-10-22T19:25:45.808Z,4.73
2022-10-22T19:28:38.980Z,4.63
2022-10-22T19:31:07.410Z,4.47
2022-10-22T19:33:37.130Z,4.30
2022-10-22T19:36:05.732Z,4.60
2022-10-22T19:38:32.409Z,4.03
2022-10-22T19:40:59.006Z,4.27
2022-10-22T19:43:26.691Z,4.43
2022-10-22T19:45:53.270Z,4.50
2022-10-22T19:48:19.916Z,4.20
2022-10-22T19:50:47.141Z,4.30
2022-10-22T19:53:14.336Z,3.80
2022-10-22T19:55:44.871Z,3.77
2022-10-22T19:58:12.198Z,3.93
2022-10-22T20:00:39.172Z,3.90
2022-10-22T20:03:05.977Z,3.87
2022-10-22T20:05:32.614Z,4.20
2022-10-22T20:07:59.551Z,4.10
2022-10-22T20:10:26.652Z,4.10
2022-10-22T20:12:53.363Z,7.47
2022-10-22T20:15:21.605Z,7.53
2022-10-22T20:17:48.549Z,7.53
2022-10-22T20:20:17.328Z,6.60
2022-10-22T20:22:44.504Z,5.73
2022-10-22T20:25:12.423Z,5.60
2022-10-22T20:27:39.677Z,4.97
2022-10-22T20:30:07.289Z,4.73
2022-10-22T20:32:37.220Z,4.90
2022-10-22T20:35:04.747Z,4.10
2022-10-22T20:37:31.606Z,4.40
2022-10-22T20:39:58.415Z,4.30
2022-10-22T20:42:25.107Z,4.13
2022-10-22T20:44:51.893Z,4.00
2022-10-22T20:47:18.626Z,3.47
2022-10-22T20:49:51.386Z,3.67
2022-10-22T20:52:19.189Z,4.17
2022-10-22T20:54:46.033Z,4.47
2022-10-22T20:57:13.526Z,4.90
2022-10-22T20:59:40.153Z,4.30
2022-10-22T21:02:06.919Z,4.00
2022-10-22T21:04:34.147Z,3.70
2022-10-22T21:07:00.905Z,4.10
2022-10-22T21:09:28.131Z,4.07
2022-10-22T21:14:23.403Z,3.33
2022-10-22T21:16:51.263Z,3.30
2022-10-22T21:19:19.601Z,3.60
2022-10-22T21:21:46.193Z,3.77
2022-10-22T21:24:13.101Z,3.30
2022-10-22T21:26:41.429Z,3.43
2022-10-22T21:29:09.022Z,3.10
2022-10-22T21:31:35.907Z,3.30
2022-10-22T21:34:02.618Z,2.80
2022-10-22T21:36:29.273Z,3.30
2022-10-22T21:38:55.968Z,3.50
2022-10-22T21:41:24.084Z,3.00
2022-10-22T21:43:51.209Z,2.80
2022-10-22T21:46:23.436Z,2.83
2022-10-22T21:49:02.202Z,2.80
2022-10-22T21:51:31.301Z,2.93
2022-10-22T21:53:58.259Z,3.00
2022-10-22T21:56:30.078Z,3.20
2022-10-22T21:58:56.708Z,3.00
2022-10-22T22:01:23.521Z,3.10
2022-10-22T22:03:51.553Z,3.10
2022-10-22T22:06:22.750Z,3.03
2022-10-22T22:08:51.193Z,3.43
2022-10-22T22:11:20.835Z,2.67
2022-10-22T22:13:48.876Z,3.07
2022-10-22T22:16:22.537Z,3.20
2022-10-22T22:18:52.376Z,3.20
2022-10-22T22:21:20.762Z,3.20
2022-10-22T22:23:49.079Z,3.17
2022-10-22T22:26:18.995Z,3.50
2022-10-22T22:28:45.693Z,3.67
2022-10-22T22:31:33.464Z,3.23
2022-10-22T22:34:04.824Z,3.27
2022-10-22T22:36:40.007Z,3.30
2022-10-22T22:39:08.043Z,3.23
2022-10-22T22:41:34.850Z,3.60
2022-10-22T22:44:02.136Z,3.53
2022-10-22T22:46:28.776Z,3.33
2022-10-22T22:48:55.392Z,3.50
2022-10-22T22:51:22.119Z,3.47
2022-10-22T22:53:48.960Z,2.93
2022-10-22T22:56:18.419Z,3.10
2022-10-22T22:58:45.214Z,2.80
2022-10-22T23:01:22.208Z,2.80
2022-10-22T23:03:53.611Z,2.83
2022-10-22T23:06:20.204Z,3.00
2022-10-22T23:08:50.219Z,2.83
2022-10-22T23:11:17.007Z,2.97
2022-10-22T23:13:43.649Z,2.73
2022-10-22T23:16:18.404Z,2.90
2022-10-22T23:18:45.940Z,2.93
2022-10-22T23:21:14.643Z,3.07
2022-10-22T23:23:49.859Z,3.03
2022-10-22T23:26:23.058Z,2.57
2022-10-22T23:28:49.727Z,2.97
2022-10-22T23:31:18.120Z,3.00
2022-10-22T23:33:45.206Z,2.77
2022-10-22T23:36:12.493Z,3.10
2022-10-22T23:38:39.892Z,2.70
2022-10-22T23:41:06.774Z,2.80
2022-10-22T23:43:36.217Z,2.87
2022-10-22T23:46:07.049Z,2.93
2022-10-22T23:48:34.352Z,3.50
2022-10-22T23:51:06.081Z,2.90
2022-10-22T23:53:32.784Z,3.37
2022-10-22T23:56:04.301Z,3.20
2022-10-22T23:58:31.026Z,3.13
